Aérodrome :
LOGIN :

S'inscrire | Disclaimer

   EN    FR    IT 

 










Légende :    VFR   VFR Marginal   IFR   IFR Intensif   IFR Très Intensif
Visi : 
Plafond : 
>= 8 km
>= 3000ft
5 à 8 km
1000 à 3000 ft
1500m à 5 km
500 à 1000 ft
800 à 1500m
200 à 500 ft
< 800m
< 200 ft
Symboles :   Orages  Brouillard  Fortes neiges  Fortes précipitations  Vent > 20 kt
SIGMETs :   Divers  Orages  Givrage  Turbulence  Onde Orograph.  Cendres Volcan.






- Altitude de l'aérodrome : 197 ft
- Code IATA : XOG


LFMO - Orange

DERNIER METAR :
  • 022200Z AUTO 15005KT CAVOK 19/16 Q1013 NOSIG

METARs EXPIRÉS :
  • 022130Z AUTO 14006KT CAVOK 19/16 Q1013 NOSIG
  • 022100Z AUTO 13007KT CAVOK 19/15 Q1013 NOSIG
  • 022030Z AUTO 15005KT CAVOK 20/15 Q1013 NOSIG
  • 022000Z AUTO 16005KT 130V190 CAVOK 21/15 Q1013 NOSIG
  • 021930Z AUTO 18005KT 150V210 CAVOK 22/15 Q1012 NOSIG

TAF TAF LFMO
Valide du 02 à 21h jusqu'au 03 à 21h UTC


022000Z 0221/0321 16005KT CAVOK
BECMG 0301/0303 BKN010
PROB30
TEMPO 0303/0306 BKN005
BECMG 0307/0309 SCT020
BECMG 0312/0313 19015KT
PROB30
TEMPO 0313/0318 4000 SHRA SCT060TCU



MET'MAP, la Météo Aéronautique d'un coup d'oeil ! - Copyright ORBIFLY Décembre 2007 - Disclaimer

ORBIFLY MET'MAP TEAM :

Programmation & Développement : Alexandra Zaïnal
Sur une idée originale de : Baudouin d'Aumeries
Assistance à la programmation : Marc-Olivier Méhu
Soutien technique & logistique : Manuel Goepfert

Contact : metmap@orbifly.com




SOURCES & CREDITS :

   NOAA